kamleshyadav.com alexa rank chart, kamleshyadav.com alexa rank daily changes

kamleshyadav.com alexa rank chart, kamleshyadav.com alexa rank daily changes

kamleshyadav.com
Actual rank:
344 650

RANK HISTORY

Date Rank Diff
2017/06/27 344 650 -608
2017/06/26 345 258 -2 321
2017/06/25 347 579 -1 593
2017/06/24 349 172 +7 888
2017/06/23 341 284 -2 441
2017/06/22 343 725 -415
2017/06/21 344 140 -8 559
2017/06/20 352 699 -237
2017/06/19 352 936 -433
2017/06/18 353 369 -6 271
2017/06/17 359 640 -1 121
2017/06/16 360 761 -6 170
2017/06/15 366 931 -905
2017/06/14 367 836 -8 916
2017/06/13 376 752 -5 811
2017/06/12 382 563 +569
2017/06/11 381 994 -13 629
2017/06/10 395 623 -2 088
2017/06/09 397 711 -19 466
2017/06/08 417 177 -22 256
2017/06/07 439 433 +18 608
2017/06/06 420 825 +10 028
2017/06/05 410 797 +14 163
2017/06/04 396 634 -4 250
2017/06/03 400 884 -17 763
2017/06/02 418 647 +19 943
2017/06/01 398 704 +1 488
2017/05/31 397 216 -3 939
2017/05/30 401 155 -11 037
2017/05/29 412 192 -1 045
2017/05/28 413 237 -2 327
2017/05/27 415 564 -5 017
2017/05/26 420 581 +2 953
2017/05/25 417 628 -3 717
2017/05/24 421 345 -7 456
2017/05/23 428 801 -41
2017/05/22 428 842 -3 074
2017/05/21 431 916 -684
2017/05/20 432 600 -2 972
2017/05/19 435 572 -2 259
2017/05/18 437 831 -4 856
2017/05/17 442 687 +10 674
2017/05/16 432 013 -3 535
2017/05/15 435 548 +2 876
2017/05/14 432 672 +11 300
2017/05/13 421 372 +7 822
2017/05/12 413 550 +2 047
2017/05/11 411 503 -6 589
2017/05/10 418 092 -5 455
2017/05/09 423 547 +6 946
2017/05/08 416 601 -1 767
2017/05/07 418 368 -12 507
2017/05/06 430 875 -4 456
2017/05/05 435 331 -33 729
2017/05/04 469 060 -7 937
2017/05/03 476 997 -2 021
2017/05/02 479 018 -19 426
2017/05/01 498 444 -8 735
2017/04/30 507 179 +2 544
2017/04/29 504 635 -1 474
2017/04/28 506 109

WIDGET FOR YOUR SITE

DOMAINS WITH THE NEAREST RANK

Domain Rank
escolapia.cat 344 645
siliguritimes.com 344 646
gexpro.com 344 647
ipayamex.lk 344 648
takvim.tj 344 649
kamleshyadav.com 344 650
pubgonline.com 344 651
wasafah.xyz 344 652
hrk.aero 344 653
kineticvas.com 344 654
9p91.com 344 655

DOMAINS WITH THE NEAREST RANK BY TLD .com

Domain Rank
cbcindustries.com 344 638
nyuugan-plaza.com 344 640
hardcore-party-girls.com 344 644
siliguritimes.com 344 646
gexpro.com 344 647
kamleshyadav.com 344 650
pubgonline.com 344 651
kineticvas.com 344 654
9p91.com 344 655
amishoutletstore.com 344 656
midiyaweb.com 344 658